METAR AND TAF INFORMATION
METAR FOR LFBO
ADDS - METARS form results

(0438 UTC 21 August 2017)
Data provider http://aviationweather.gov/adds/metars/
 
METAR text: LFBO 210430Z AUTO 18004KT CAVOK 13/09 Q1022 NOSIG
Conditions at: LFBO (TOULOUSE/BLAGNAC, FR) observed 0430 UTC 21 August 2017
Temperature: 13.0°C (55°F)
Dewpoint: 9.0°C (48°F) [RH = 77%]
Pressure (altimeter): 30.18 inches Hg (1022.0 mb)
Winds: from the S (180 degrees) at 5 MPH (4 knots; 2.1 m/s)
Visibility: 6 or more miles (10+ km)
Ceiling: ceiling and visibility are OK
Clouds: unknown
Weather: no significant weather observed at this time

METAR text: LFBO 210400Z AUTO 17003KT CAVOK 13/08 Q1022 NOSIG
Conditions at: LFBO (TOULOUSE/BLAGNAC, FR) observed 0400 UTC 21 August 2017
Temperature: 13.0°C (55°F)
Dewpoint: 8.0°C (46°F) [RH = 72%]
Pressure (altimeter): 30.18 inches Hg (1022.0 mb)
Winds: from the S (170 degrees) at 3 MPH (3 knots; 1.6 m/s)
Visibility: 6 or more miles (10+ km)
Ceiling: ceiling and visibility are OK
Clouds: unknown
Weather: no significant weather observed at this time

Forecast for: LFBO (TOULOUSE/BLAGNAC, FR)
Text: TAF LFBO 202300Z 2100/2206 31004KT CAVOK
Forecast period: 0000 UTC 21 August 2017 to 0300 UTC 22 August 2017
Forecast type: FROM: standard forecast or significant change
Winds: from the NW (310 degrees) at 5 MPH (4 knots; 2.1 m/s)
Visibility: 6 or more miles (10+ km)
Clouds: not forecast
Weather: NSW  (no significant weather)
Text: BECMG 2203/2206 14012KT
Forecast period: 0300 to 0600 UTC 22 August 2017
Forecast type: BECOMING: Conditions expected to become as follows by 0600 UTC 22 August 2017
Winds: from the SE (140 degrees) at 14 MPH (12 knots; 6.2 m/s)
Visibility: 6 or more miles (10+ km)
Weather: NSW  (no significant weather)

 AIRPORT MAP

 RUNWAY INFORMATION
Runway 14L Runway length 9843 ft Runway width 148 ft
Runway elevation 490 ft Runway displaced threshold 0 ft Runway heading 143
Runway 32R Runway length 9843 ft Runway width 148 ft
Runway elevation 497 ft Runway displaced threshold 0 ft Runway heading 323
Runway 14R Runway length 11483 ft Runway width 148 ft
Runway elevation 488 ft Runway displaced threshold 0 ft Runway heading 143
Runway 32L Runway length 11483 ft Runway width 148 ft
Runway elevation 497 ft Runway displaced threshold 0 ft Runway heading 323

 AIRPORT FREQUENCIES
Type AFIS Name TOULOUSE I Frequency 121.25 MHZ
Type APP Name APP Frequency 121.1 MHZ
Type APP Name TOULOUSE A Frequency 125.175 MHZ
Type ATIS Name ATIS Frequency 123.125 MHZ
Type CLD Name CLNC DEL Frequency 121.7 MHZ
Type GND Name GND Frequency 121.9 MHZ
Type TWR Name TWR Frequency 118.1 MHZ

 AIRPORT NEAR NAVIGATION AIDS
Type NDB Name Toulouse Frequency 415 KHZ
Type VOR-DME Name Toulouse Frequency 117700 KHZ
Type NDB Name Toulouse Frequency 423 KHZ
Type NDB Name Toulouse Frequency 406 KHZ







Air Nostrum Virtual © 2017

a VAG member

Policy Privacy | Rules | Powered by VAM [V2.6.2] | Customized by Jz © 2017 for Air Nostrum Virtual